Aviation Digital Data Service (ADDS)

Output produced by METARs form (1428 UTC 25 April 2015)
found at http://aviationweather.gov/adds/metars/
 
KFRG 251353Z 29008G16KT 10SM CLR 08/M05 A2987 RMK AO2 SLP116 T00781050
KISP 251356Z 32012KT 10SM FEW250 08/M05 A2985 RMK AO2 SLP107 T00781050
KISP 251123Z 2512/2612 29006KT P6SM SKC 
     FM251300 31013G20KT P6SM SCT250 
     FM252000 27012KT P6SM FEW050 SCT250 
     FM252300 23008KT P6SM SCT250 
     FM260200 VRB03KT P6SM BKN250 
     FM260600 01004KT P6SM BKN250
       
KJFK 251351Z 32012G20KT 10SM BKN250 09/M06 A2988 RMK AO2 SLP119 T00891061 $
KJFK 251123Z 2512/2618 30011KT P6SM SKC 
     FM251400 30013G19KT P6SM SCT250 
     FM252000 23012KT P6SM FEW050 SCT250 
     FM260000 21009KT P6SM SCT250 
     FM260300 VRB05KT P6SM BKN250 
     FM260600 01005KT P6SM BKN250 
     FM261500 04007KT P6SM SCT050
       
KBDR 251352Z 33010KT 10SM CLR 08/M05 A2985 RMK AO2 SLP106 T00831050
KBDR 251123Z 2512/2612 28007KT P6SM SKC 
     FM251400 29011G19KT P6SM SCT250 
     FM252000 26010KT P6SM FEW050 SCT250 
     FM252300 23008KT P6SM SCT250 
     FM260300 36004KT P6SM BKN250 
     FM260600 02005KT P6SM BKN250